Time;durP1;ratioP1;P1;durP2;ratioP2;P2;SDS_P1;SDS_P2;PMS_P1;PMS_P2;Temp;Humidity;BMP_temperature;BMP_pressure;BME280_temperature;BME280_humidity;BME280_pressure;Samples;Min_cycle;Max_cycle;Signal;HPM_P1;HPM_P2
2021/08/13 00:01:10;;;;;;;7.95;6.35;;;;;;;;;;5001389;28;20471;-84
2021/08/13 00:03:36;;;;;;;9.88;6.40;;;;;;;;;;5000893;28;20081;-85
2021/08/13 00:06:03;;;;;;;10.15;6.35;;;;;;;;;;5016718;28;20049;-85
2021/08/13 00:08:29;;;;;;;9.68;5.63;;;;;;;;;;5001076;28;20401;-84
2021/08/13 00:10:55;;;;;;;9.52;5.68;;;;;;;;;;5001498;28;20030;-84
2021/08/13 00:13:21;;;;;;;12.23;5.97;;;;;;;;;;5001081;28;20027;-85
2021/08/13 00:15:47;;;;;;;7.05;5.78;;;;;;;;;;5001048;28;20031;-85
2021/08/13 00:18:13;;;;;;;9.93;5.95;;;;;;;;;;5001184;28;20026;-86
2021/08/13 00:20:39;;;;;;;8.93;5.75;;;;;;;;;;5001062;28;20451;-85
2021/08/13 00:23:05;;;;;;;11.73;5.90;;;;;;;;;;5000997;28;20057;-85
2021/08/13 00:25:31;;;;;;;8.90;5.80;;;;;;;;;;5001173;28;20073;-86
2021/08/13 00:27:57;;;;;;;6.07;4.57;;;;;;;;;;5000802;28;20416;-84
2021/08/13 00:30:23;;;;;;;9.32;5.22;;;;;;;;;;5000680;28;20443;-84
2021/08/13 00:32:49;;;;;;;9.18;5.50;;;;;;;;;;5000691;28;20038;-85
2021/08/13 00:35:15;;;;;;;10.00;5.50;;;;;;;;;;5000656;28;20022;-85
2021/08/13 00:37:42;;;;;;;9.05;5.15;;;;;;;;;;5000685;28;20054;-85
2021/08/13 00:40:08;;;;;;;7.68;5.63;;;;;;;;;;5000166;28;20042;-85
2021/08/13 00:42:34;;;;;;;8.85;5.45;;;;;;;;;;5000518;28;20022;-84
2021/08/13 00:45:00;;;;;;;8.75;5.70;;;;;;;;;;5000701;28;20026;-84
2021/08/13 00:47:26;;;;;;;8.85;5.57;;;;;;;;;;5015707;28;20031;-84
2021/08/13 00:49:53;;;;;;;7.82;5.65;;;;;;;;;;5000416;28;20085;-84
2021/08/13 00:52:19;;;;;;;9.18;5.20;;;;;;;;;;5000337;28;20030;-84
2021/08/13 00:54:45;;;;;;;8.93;5.45;;;;;;;;;;4999267;28;20026;-84
2021/08/13 00:57:11;;;;;;;9.38;5.63;;;;;;;;;;5014468;28;20030;-84
2021/08/13 00:59:40;;;;;;;11.63;5.72;;;;;;;;;;5000347;28;20048;-85
2021/08/13 01:02:06;;;;;;;5.93;5.07;;;;;;;;;;5000267;28;20022;-84
2021/08/13 01:04:32;;;;;;;10.00;5.68;;;;;;;;;;5000265;28;20061;-84
2021/08/13 01:06:58;;;;;;;9.23;5.18;;;;;;;;;;5000060;28;20037;-84
2021/08/13 01:09:25;;;;;;;10.88;5.55;;;;;;;;;;5000113;28;20098;-85
2021/08/13 01:11:54;;;;;;;8.38;5.82;;;;;;;;;;5015419;28;20302;-85
2021/08/13 01:14:39;;;;;;;9.45;5.72;;;;;;;;;;5015482;28;20049;-85
2021/08/13 01:17:07;;;;;;;17.60;6.35;;;;;;;;;;5015369;28;20049;-85
2021/08/13 01:19:36;;;;;;;10.05;5.55;;;;;;;;;;5000126;28;20022;-86
2021/08/13 01:22:08;;;;;;;9.32;5.03;;;;;;;;;;5015300;28;20049;-87
2021/08/13 01:24:38;;;;;;;8.30;5.32;;;;;;;;;;5015330;28;20022;-88
2021/08/13 01:27:09;;;;;;;9.50;5.95;;;;;;;;;;4999814;28;20035;-87
2021/08/13 01:29:35;;;;;;;;;;;;;;;;;;5015665;28;20033;-87
2021/08/13 01:32:20;;;;;;;9.07;5.72;;;;;;;;;;4999942;28;19906;-87
2021/08/13 01:34:51;;;;;;;10.82;5.40;;;;;;;;;;4999915;28;20022;-87
2021/08/13 01:37:18;;;;;;;11.25;5.70;;;;;;;;;;5014973;28;20057;-87
2021/08/13 01:39:45;;;;;;;13.60;5.28;;;;;;;;;;4999758;28;20092;-87
2021/08/13 01:42:11;;;;;;;14.38;5.97;;;;;;;;;;4999770;28;20030;-87
2021/08/13 01:44:38;;;;;;;9.40;5.63;;;;;;;;;;4999831;28;20025;-87
2021/08/13 01:47:04;;;;;;;9.27;5.70;;;;;;;;;;4999647;28;20050;-87
2021/08/13 01:49:31;;;;;;;8.75;5.53;;;;;;;;;;4999545;28;20027;-87
2021/08/13 01:51:58;;;;;;;9.57;5.50;;;;;;;;;;4999659;28;20324;-87
2021/08/13 01:54:24;;;;;;;8.80;5.18;;;;;;;;;;4999371;28;20401;-87
2021/08/13 01:56:51;;;;;;;7.63;5.78;;;;;;;;;;4998969;28;20109;-87
2021/08/13 01:59:17;;;;;;;12.25;6.45;;;;;;;;;;4999033;28;20022;-87
2021/08/13 02:01:44;;;;;;;8.65;5.63;;;;;;;;;;4999021;28;20435;-87
2021/08/13 02:04:11;;;;;;;6.90;5.43;;;;;;;;;;5014831;28;20029;-87
2021/08/13 02:06:37;;;;;;;9.38;5.45;;;;;;;;;;4999337;28;20030;-87
2021/08/13 02:09:04;;;;;;;6.90;5.50;;;;;;;;;;4999281;28;20161;-87
2021/08/13 02:11:31;;;;;;;13.30;5.82;;;;;;;;;;5014465;28;20034;-87
2021/08/13 02:13:57;;;;;;;9.13;6.25;;;;;;;;;;5014404;28;20105;-87
2021/08/13 02:16:27;;;;;;;8.98;5.60;;;;;;;;;;4999022;28;20026;-86
2021/08/13 02:19:01;;;;;;;9.25;5.72;;;;;;;;;;4999194;28;20033;-87
2021/08/13 02:21:29;;;;;;;13.45;6.50;;;;;;;;;;4998944;28;20033;-87
2021/08/13 02:23:55;;;;;;;8.68;5.45;;;;;;;;;;5014466;28;20029;-87
2021/08/13 02:26:21;;;;;;;9.48;5.82;;;;;;;;;;4998964;28;20022;-86
2021/08/13 02:28:47;;;;;;;11.45;6.22;;;;;;;;;;5014145;28;20032;-86
2021/08/13 02:31:13;;;;;;;7.82;5.60;;;;;;;;;;5014057;28;20034;-86
2021/08/13 02:33:39;;;;;;;8.65;5.85;;;;;;;;;;4998636;28;20030;-85
2021/08/13 02:36:09;;;;;;;9.52;5.78;;;;;;;;;;4998540;28;20427;-87
2021/08/13 02:38:38;;;;;;;11.07;5.57;;;;;;;;;;4998858;28;20026;-86
2021/08/13 02:41:05;;;;;;;13.02;6.00;;;;;;;;;;5013867;28;20047;-85
2021/08/13 02:43:34;;;;;;;9.32;5.88;;;;;;;;;;4998274;28;20033;-86
2021/08/13 02:46:00;;;;;;;9.10;5.15;;;;;;;;;;4998480;28;20053;-86
2021/08/13 02:48:30;;;;;;;8.25;5.63;;;;;;;;;;4998686;28;20022;-85
2021/08/13 02:50:56;;;;;;;10.77;5.60;;;;;;;;;;5013941;28;20117;-85
2021/08/13 02:53:23;;;;;;;10.60;5.90;;;;;;;;;;5013941;28;20049;-85
2021/08/13 02:56:02;;;;;;;13.48;5.57;;;;;;;;;;5013563;28;20372;-85
2021/08/13 02:58:32;;;;;;;12.27;5.97;;;;;;;;;;4998123;28;20057;-85
2021/08/13 03:00:59;;;;;;;9.40;5.90;;;;;;;;;;4998242;28;20023;-85
2021/08/13 03:03:29;;;;;;;10.93;6.40;;;;;;;;;;4998413;28;20089;-86
2021/08/13 03:05:57;;;;;;;9.68;6.78;;;;;;;;;;4997935;28;20483;-85
2021/08/13 03:08:23;;;;;;;10.27;5.88;;;;;;;;;;5013578;28;20034;-85
2021/08/13 03:10:49;;;;;;;10.02;6.13;;;;;;;;;;4998203;28;20040;-86
2021/08/13 03:13:21;;;;;;;12.13;6.70;;;;;;;;;;4998043;28;20027;-87
2021/08/13 03:15:47;;;;;;;12.68;7.10;;;;;;;;;;5013555;28;20117;-87
2021/08/13 03:18:13;;;;;;;12.43;7.53;;;;;;;;;;4997909;28;20424;-87
2021/08/13 03:20:41;;;;;;;10.93;6.22;;;;;;;;;;4997794;28;20022;-86
2021/08/13 03:23:07;;;;;;;14.07;7.43;;;;;;;;;;4998076;28;20061;-87
2021/08/13 03:25:33;;;;;;;11.93;7.63;;;;;;;;;;4998196;28;20042;-87
2021/08/13 03:27:59;;;;;;;13.25;7.05;;;;;;;;;;5013450;28;20113;-87
2021/08/13 03:30:25;;;;;;;10.73;6.70;;;;;;;;;;4998211;28;20022;-86
2021/08/13 03:32:52;;;;;;;11.48;6.97;;;;;;;;;;4998099;28;20417;-87
2021/08/13 03:35:18;;;;;;;13.48;7.22;;;;;;;;;;5013350;28;20039;-86
2021/08/13 03:37:45;;;;;;;8.52;6.63;;;;;;;;;;4997867;28;20412;-86
2021/08/13 03:40:11;;;;;;;15.27;7.93;;;;;;;;;;4997623;28;20058;-84
2021/08/13 03:42:37;;;;;;;14.60;7.05;;;;;;;;;;4997655;28;20026;-84
2021/08/13 03:45:03;;;;;;;13.10;7.35;;;;;;;;;;4997981;28;20030;-84
2021/08/13 03:47:29;;;;;;;13.73;7.43;;;;;;;;;;4997723;28;20042;-84
2021/08/13 03:49:55;;;;;;;12.10;6.90;;;;;;;;;;5013013;28;20113;-85
2021/08/13 03:52:21;;;;;;;16.92;7.90;;;;;;;;;;5013270;28;20026;-85
2021/08/13 03:54:48;;;;;;;14.60;7.30;;;;;;;;;;4997677;28;20022;-85
2021/08/13 03:57:14;;;;;;;17.75;8.15;;;;;;;;;;5012998;28;20034;-85
2021/08/13 03:59:40;;;;;;;15.00;7.75;;;;;;;;;;4997583;28;20022;-85
2021/08/13 04:02:06;;;;;;;15.10;7.63;;;;;;;;;;4997848;28;20022;-85
2021/08/13 04:04:32;;;;;;;16.48;7.97;;;;;;;;;;4997634;28;20113;-85
2021/08/13 04:06:58;;;;;;;17.83;8.73;;;;;;;;;;4997510;28;20019;-84
2021/08/13 04:09:24;;;;;;;12.30;7.93;;;;;;;;;;4997757;28;20045;-84
2021/08/13 04:11:50;;;;;;;14.50;7.65;;;;;;;;;;5012864;28;20053;-85
2021/08/13 04:14:17;;;;;;;17.25;8.18;;;;;;;;;;4997494;28;20093;-84
2021/08/13 04:16:43;;;;;;;11.25;8.02;;;;;;;;;;4997644;28;20029;-84
2021/08/13 04:19:09;;;;;;;11.90;7.57;;;;;;;;;;4997090;28;20031;-84
2021/08/13 04:21:35;;;;;;;15.20;7.72;;;;;;;;;;4997617;28;20027;-84
2021/08/13 04:24:01;;;;;;;15.50;8.38;;;;;;;;;;4997529;28;20122;-85
2021/08/13 04:26:27;;;;;;;13.68;8.43;;;;;;;;;;4997707;28;20022;-85
2021/08/13 04:28:53;;;;;;;16.55;8.15;;;;;;;;;;4997104;28;20037;-84
2021/08/13 04:31:19;;;;;;;17.85;7.90;;;;;;;;;;4998388;28;20053;-85
2021/08/13 04:33:45;;;;;;;18.52;7.95;;;;;;;;;;5001042;28;20030;-85
2021/08/13 04:36:11;;;;;;;21.63;8.10;;;;;;;;;;5000851;28;20030;-85
2021/08/13 04:38:37;;;;;;;17.70;8.00;;;;;;;;;;5016200;28;20129;-85
2021/08/13 04:41:03;;;;;;;12.73;7.85;;;;;;;;;;5000639;28;20154;-85
2021/08/13 04:43:29;;;;;;;13.10;7.63;;;;;;;;;;5000482;28;20030;-85
2021/08/13 04:45:55;;;;;;;16.85;7.55;;;;;;;;;;5000781;28;20081;-85
2021/08/13 04:48:21;;;;;;;13.38;7.40;;;;;;;;;;5000716;28;20062;-85
2021/08/13 04:50:47;;;;;;;12.30;7.60;;;;;;;;;;5000746;28;20030;-85
2021/08/13 04:53:16;;;;;;;14.43;7.78;;;;;;;;;;5015966;28;20034;-85
2021/08/13 04:55:42;;;;;;;11.90;7.13;;;;;;;;;;5000516;28;20034;-85
2021/08/13 04:58:08;;;;;;;15.02;7.43;;;;;;;;;;5000418;28;20150;-85
2021/08/13 05:00:34;;;;;;;12.52;7.88;;;;;;;;;;5000297;28;20034;-84
2021/08/13 05:03:04;;;;;;;17.77;7.97;;;;;;;;;;5015571;28;20106;-85
2021/08/13 05:05:30;;;;;;;17.45;7.43;;;;;;;;;;5000323;28;20105;-86
2021/08/13 05:07:56;;;;;;;11.93;7.63;;;;;;;;;;5000288;28;20106;-86
2021/08/13 05:10:22;;;;;;;10.38;6.78;;;;;;;;;;5015652;28;20060;-85
2021/08/13 05:12:50;;;;;;;13.27;7.03;;;;;;;;;;5000102;28;20077;-85
2021/08/13 05:15:16;;;;;;;13.23;7.43;;;;;;;;;;5000068;28;20045;-86
2021/08/13 05:17:42;;;;;;;14.98;7.50;;;;;;;;;;5015641;28;20054;-86
2021/08/13 05:20:09;;;;;;;11.35;7.45;;;;;;;;;;5000081;28;20417;-86
2021/08/13 05:22:36;;;;;;;14.23;7.45;;;;;;;;;;5015603;28;20062;-86
2021/08/13 05:25:06;;;;;;;11.30;6.70;;;;;;;;;;5015428;28;20030;-87
2021/08/13 05:27:32;;;;;;;9.38;6.82;;;;;;;;;;4999988;28;20321;-86
2021/08/13 05:29:58;;;;;;;12.05;6.65;;;;;;;;;;4999936;28;20046;-86
2021/08/13 05:32:25;;;;;;;12.60;7.18;;;;;;;;;;4999438;28;20421;-84
2021/08/13 05:34:51;;;;;;;9.90;6.30;;;;;;;;;;5015107;28;20436;-85
2021/08/13 05:37:18;;;;;;;11.18;6.30;;;;;;;;;;4999765;28;20026;-85
2021/08/13 05:39:44;;;;;;;12.20;6.43;;;;;;;;;;5014684;28;20061;-86
2021/08/13 05:42:10;;;;;;;11.23;6.43;;;;;;;;;;4999295;28;20037;-86
2021/08/13 05:44:37;;;;;;;9.15;5.88;;;;;;;;;;5014906;28;20062;-81
2021/08/13 05:47:04;;;;;;;11.63;6.68;;;;;;;;;;4999248;28;20031;-81
2021/08/13 05:49:30;;;;;;;9.77;6.95;;;;;;;;;;5014230;28;20065;-81
2021/08/13 05:51:56;;;;;;;11.30;6.47;;;;;;;;;;4999073;28;20026;-81
2021/08/13 05:54:22;;;;;;;13.18;6.35;;;;;;;;;;4998992;28;20053;-81
2021/08/13 05:56:48;;;;;;;15.10;8.48;;;;;;;;;;4998505;28;20109;-81
2021/08/13 05:59:14;;;;;;;23.90;14.25;;;;;;;;;;4998822;28;20030;-81
2021/08/13 06:01:40;;;;;;;20.90;13.32;;;;;;;;;;4999032;28;20026;-81
2021/08/13 06:04:06;;;;;;;10.63;7.68;;;;;;;;;;4998476;28;20054;-81
2021/08/13 06:06:32;;;;;;;11.05;6.47;;;;;;;;;;4998642;28;20528;-81
2021/08/13 06:08:58;;;;;;;9.48;5.32;;;;;;;;;;4998657;28;20405;-81
2021/08/13 06:11:24;;;;;;;11.73;8.98;;;;;;;;;;4998749;28;20035;-81
2021/08/13 06:13:50;;;;;;;11.82;7.65;;;;;;;;;;4998461;28;20113;-81
2021/08/13 06:16:20;;;;;;;9.85;6.60;;;;;;;;;;5013647;28;20041;-81
2021/08/13 06:18:46;;;;;;;11.77;7.57;;;;;;;;;;4998401;28;20317;-81
2021/08/13 06:21:12;;;;;;;11.77;6.63;;;;;;;;;;4998463;28;20027;-81
2021/08/13 06:23:38;;;;;;;11.82;9.02;;;;;;;;;;4998403;28;20410;-81
2021/08/13 06:26:04;;;;;;;17.42;10.40;;;;;;;;;;4998327;28;20420;-81
2021/08/13 06:28:30;;;;;;;11.95;6.30;;;;;;;;;;5013422;28;20034;-81
2021/08/13 06:30:56;;;;;;;14.95;6.20;;;;;;;;;;4998203;28;20471;-81
2021/08/13 06:33:23;;;;;;;11.90;6.00;;;;;;;;;;4997726;28;20034;-81
2021/08/13 06:35:49;;;;;;;10.13;6.00;;;;;;;;;;4998283;28;20101;-82
2021/08/13 06:38:15;;;;;;;13.68;6.10;;;;;;;;;;4997142;28;20031;-81
2021/08/13 06:40:41;;;;;;;12.10;6.97;;;;;;;;;;4997878;28;20053;-80
2021/08/13 06:43:07;;;;;;;28.60;20.80;;;;;;;;;;4996612;28;20022;-80
2021/08/13 06:45:33;;;;;;;45.45;36.95;;;;;;;;;;4993524;28;20026;-81
2021/08/13 06:47:59;;;;;;;22.50;15.90;;;;;;;;;;4996881;28;20018;-80
2021/08/13 06:50:25;;;;;;;26.38;20.33;;;;;;;;;;4997957;28;20022;-80
2021/08/13 06:52:52;;;;;;;19.80;14.65;;;;;;;;;;4996490;28;20096;-80
2021/08/13 06:55:18;;;;;;;31.25;21.65;;;;;;;;;;4997314;28;20069;-80
2021/08/13 06:57:44;;;;;;;27.80;21.50;;;;;;;;;;4997438;28;20030;-81
2021/08/13 07:00:11;;;;;;;23.88;16.85;;;;;;;;;;4997907;28;20031;-81
2021/08/13 07:02:38;;;;;;;18.58;11.68;;;;;;;;;;4997190;28;20429;-80
2021/08/13 07:05:04;;;;;;;15.32;11.73;;;;;;;;;;4997940;28;20038;-81
2021/08/13 07:07:31;;;;;;;16.15;11.10;;;;;;;;;;4995009;28;20022;-80
2021/08/13 07:09:58;;;;;;;48.05;37.65;;;;;;;;;;4997684;28;20081;-81
2021/08/13 07:12:24;;;;;;;12.48;7.82;;;;;;;;;;4997518;28;20118;-81
2021/08/13 07:14:50;;;;;;;8.60;5.70;;;;;;;;;;4996518;28;20034;-81
2021/08/13 07:17:16;;;;;;;17.00;5.88;;;;;;;;;;4997366;28;20480;-81
2021/08/13 07:19:42;;;;;;;10.82;6.00;;;;;;;;;;4997821;28;20030;-81
2021/08/13 07:22:08;;;;;;;8.88;5.40;;;;;;;;;;4997690;28;20038;-81
2021/08/13 07:24:35;;;;;;;8.45;5.78;;;;;;;;;;4997524;28;20518;-81
2021/08/13 07:27:01;;;;;;;5.40;4.30;;;;;;;;;;4996440;28;20029;-81
2021/08/13 07:29:27;;;;;;;6.53;3.78;;;;;;;;;;4997510;28;20038;-80
2021/08/13 07:31:55;;;;;;;6.50;4.30;;;;;;;;;;4997377;28;20034;-80
2021/08/13 07:34:21;;;;;;;8.35;4.38;;;;;;;;;;5012814;28;20034;-80
2021/08/13 07:36:47;;;;;;;9.35;4.53;;;;;;;;;;4997213;28;20142;-81
2021/08/13 07:39:13;;;;;;;6.35;3.95;;;;;;;;;;4997364;28;20110;-81
2021/08/13 07:41:39;;;;;;;10.70;4.30;;;;;;;;;;4997394;28;20027;-81
2021/08/13 07:44:05;;;;;;;13.65;4.47;;;;;;;;;;4997334;28;20019;-81
2021/08/13 07:46:31;;;;;;;8.57;4.40;;;;;;;;;;4997336;28;20034;-83
2021/08/13 07:48:57;;;;;;;17.90;4.63;;;;;;;;;;5012331;28;20034;-81
2021/08/13 07:51:24;;;;;;;8.05;4.45;;;;;;;;;;4997526;28;20105;-81
2021/08/13 07:53:50;;;;;;;9.48;5.50;;;;;;;;;;4997330;28;20030;-80
2021/08/13 07:56:17;;;;;;;10.15;5.65;;;;;;;;;;4997092;28;20022;-81
2021/08/13 07:58:43;;;;;;;8.77;5.80;;;;;;;;;;5012473;28;20033;-81
2021/08/13 08:01:09;;;;;;;7.18;4.72;;;;;;;;;;4997006;28;20025;-80
2021/08/13 08:03:35;;;;;;;6.57;4.85;;;;;;;;;;4997089;28;20022;-79
2021/08/13 08:06:01;;;;;;;7.43;4.35;;;;;;;;;;5014242;28;20420;-80
2021/08/13 08:08:27;;;;;;;6.50;4.07;;;;;;;;;;5000999;28;20030;-80
2021/08/13 08:10:53;;;;;;;7.63;3.72;;;;;;;;;;5000997;28;20080;-80
2021/08/13 08:13:19;;;;;;;9.00;4.65;;;;;;;;;;5000464;28;20030;-80
2021/08/13 08:15:46;;;;;;;6.97;3.70;;;;;;;;;;5000295;28;20036;-80
2021/08/13 08:18:12;;;;;;;5.78;3.80;;;;;;;;;;5000949;28;20030;-80
2021/08/13 08:20:38;;;;;;;5.13;3.78;;;;;;;;;;5000665;28;20033;-80
2021/08/13 08:23:05;;;;;;;10.00;4.30;;;;;;;;;;5000667;28;20030;-79
2021/08/13 08:25:32;;;;;;;5.60;4.38;;;;;;;;;;5000588;28;20409;-80
2021/08/13 08:27:58;;;;;;;5.75;3.70;;;;;;;;;;5000444;28;20026;-79
2021/08/13 08:30:24;;;;;;;7.53;4.25;;;;;;;;;;5000283;28;20339;-79
2021/08/13 08:32:50;;;;;;;6.45;4.60;;;;;;;;;;5000382;28;20030;-79
2021/08/13 08:35:16;;;;;;;9.60;4.53;;;;;;;;;;5000416;28;20413;-79
2021/08/13 08:37:50;;;;;;;6.53;5.25;;;;;;;;;;4999939;28;20348;-79
2021/08/13 08:40:19;;;;;;;11.60;4.93;;;;;;;;;;5000166;28;20437;-80
2021/08/13 08:42:46;;;;;;;5.95;4.70;;;;;;;;;;5000240;28;20045;-80
2021/08/13 08:45:12;;;;;;;8.52;5.25;;;;;;;;;;5000294;28;20431;-80
2021/08/13 08:47:38;;;;;;;6.38;4.75;;;;;;;;;;5000414;28;20026;-80
2021/08/13 08:50:04;;;;;;;7.32;4.20;;;;;;;;;;5000161;28;20443;-79
2021/08/13 08:52:30;;;;;;;7.85;4.55;;;;;;;;;;4999790;28;20150;-80
2021/08/13 08:54:57;;;;;;;8.65;4.93;;;;;;;;;;5000151;28;20034;-77
2021/08/13 08:57:28;;;;;;;8.45;4.25;;;;;;;;;;4999749;28;20125;-76
2021/08/13 08:59:57;;;;;;;5.53;4.25;;;;;;;;;;4999916;28;20412;-76
2021/08/13 09:02:23;;;;;;;6.90;4.10;;;;;;;;;;4999875;28;20432;-77
2021/08/13 09:04:49;;;;;;;10.48;4.25;;;;;;;;;;4999844;28;20413;-77
2021/08/13 09:07:15;;;;;;;7.30;3.97;;;;;;;;;;4999848;28;20026;-77
2021/08/13 09:09:41;;;;;;;5.93;4.30;;;;;;;;;;4999708;28;20041;-77
2021/08/13 09:12:08;;;;;;;6.10;4.35;;;;;;;;;;4999752;28;20052;-77
2021/08/13 09:14:38;;;;;;;7.72;4.10;;;;;;;;;;5015248;28;20042;-77
2021/08/13 09:17:04;;;;;;;6.75;3.70;;;;;;;;;;5014106;28;20033;-77
2021/08/13 09:19:48;;;;;;;9.38;4.55;;;;;;;;;;4999678;28;20355;-76
2021/08/13 09:22:15;;;;;;;16.05;5.15;;;;;;;;;;4999691;28;20045;-77
2021/08/13 09:24:42;;;;;;;6.93;3.92;;;;;;;;;;4998903;28;20022;-77
2021/08/13 09:27:15;;;;;;;8.90;4.13;;;;;;;;;;4998651;28;20030;-77
2021/08/13 09:29:42;;;;;;;4.85;3.80;;;;;;;;;;4999084;28;20026;-76
2021/08/13 09:32:08;;;;;;;8.23;3.60;;;;;;;;;;4999487;28;20030;-76
2021/08/13 09:34:35;;;;;;;5.85;3.88;;;;;;;;;;4999112;28;20030;-76
2021/08/13 09:37:01;;;;;;;7.60;4.03;;;;;;;;;;4999713;28;20080;-76
2021/08/13 09:39:30;;;;;;;7.18;3.83;;;;;;;;;;4997891;28;20038;-77
2021/08/13 09:42:00;;;;;;;8.77;4.07;;;;;;;;;;4999248;28;20030;-76
2021/08/13 09:44:44;;;;;;;4.82;3.53;;;;;;;;;;4999381;28;20106;-76
2021/08/13 09:47:16;;;;;;;5.57;3.60;;;;;;;;;;4998058;28;20040;-76
2021/08/13 09:49:53;;;;;;;7.40;3.72;;;;;;;;;;5008465;28;20068;-76
2021/08/13 09:52:21;;;;;;;5.45;4.00;;;;;;;;;;5018480;28;20022;-77
2021/08/13 09:54:49;;;;;;;6.78;3.80;;;;;;;;;;5034275;28;20145;-77
2021/08/13 09:57:16;;;;;;;6.25;3.88;;;;;;;;;;5018587;28;20050;-77
2021/08/13 09:59:58;;;;;;;9.85;3.50;;;;;;;;;;5018637;28;20033;-77
2021/08/13 10:02:24;;;;;;;4.65;3.70;;;;;;;;;;5003037;28;20061;-77
2021/08/13 10:04:50;;;;;;;8.65;3.92;;;;;;;;;;4998777;28;20018;-77
2021/08/13 10:07:20;;;;;;;9.00;3.63;;;;;;;;;;4998958;28;20468;-76
2021/08/13 10:09:48;;;;;;;5.13;3.50;;;;;;;;;;4997557;28;20030;-77
2021/08/13 10:12:15;;;;;;;8.05;3.92;;;;;;;;;;4998696;28;20356;-77
2021/08/13 10:14:42;;;;;;;8.52;4.43;;;;;;;;;;4998698;28;20042;-77
2021/08/13 10:17:11;;;;;;;6.72;3.83;;;;;;;;;;4998613;28;20030;-77
2021/08/13 10:19:41;;;;;;;4.68;4.03;;;;;;;;;;4998239;28;20061;-77
2021/08/13 10:22:08;;;;;;;6.73;3.67;;;;;;;;;;5013757;28;20023;-77
2021/08/13 10:24:35;;;;;;;6.20;4.40;;;;;;;;;;4998292;28;20022;-76
2021/08/13 10:27:02;;;;;;;6.72;4.03;;;;;;;;;;4998603;28;20030;-77
2021/08/13 10:29:28;;;;;;;10.32;4.38;;;;;;;;;;5013793;28;20042;-76
2021/08/13 10:31:56;;;;;;;10.35;3.85;;;;;;;;;;4998524;28;20040;-77
2021/08/13 10:34:22;;;;;;;6.28;4.20;;;;;;;;;;4997948;28;20061;-77
2021/08/13 10:36:49;;;;;;;6.07;3.90;;;;;;;;;;4997861;28;20121;-77
2021/08/13 10:39:19;;;;;;;5.32;4.00;;;;;;;;;;4998176;28;20037;-76
2021/08/13 10:41:47;;;;;;;8.93;4.13;;;;;;;;;;4998276;28;20033;-77
2021/08/13 10:44:16;;;;;;;6.20;3.60;;;;;;;;;;4998328;28;20316;-77
2021/08/13 10:46:43;;;;;;;9.90;4.28;;;;;;;;;;4998121;28;20034;-77
2021/08/13 10:49:13;;;;;;;9.63;3.95;;;;;;;;;;4997991;28;20030;-77
2021/08/13 10:51:39;;;;;;;7.18;4.20;;;;;;;;;;4997886;28;20471;-77
2021/08/13 10:54:05;;;;;;;8.27;4.03;;;;;;;;;;4998019;28;20037;-76
2021/08/13 10:56:59;;;;;;;16.00;5.60;;;;;;;;;;4997761;28;20026;-77
2021/08/13 10:59:40;;;;;;;10.63;4.53;;;;;;;;;;4995439;28;20030;-77
2021/08/13 11:02:10;;;;;;;10.27;5.07;;;;;;;;;;4998072;28;20097;-77
2021/08/13 11:04:40;;;;;;;7.40;4.20;;;;;;;;;;4997753;28;20031;-77
2021/08/13 11:07:06;;;;;;;7.90;4.30;;;;;;;;;;4997952;28;20057;-76
2021/08/13 11:09:38;;;;;;;7.22;4.35;;;;;;;;;;5012946;28;20054;-77
2021/08/13 11:12:05;;;;;;;5.82;4.32;;;;;;;;;;4997710;28;20620;-77
2021/08/13 11:14:34;;;;;;;10.77;4.82;;;;;;;;;;4997821;28;20034;-77
2021/08/13 11:17:02;;;;;;;7.60;4.10;;;;;;;;;;4997603;28;20022;-77
2021/08/13 11:19:28;;;;;;;7.10;4.10;;;;;;;;;;4997671;28;20046;-77
2021/08/13 11:21:55;;;;;;;6.47;4.18;;;;;;;;;;4997682;28;20026;-77
2021/08/13 11:24:22;;;;;;;6.53;4.30;;;;;;;;;;4997362;28;20030;-77
2021/08/13 11:26:48;;;;;;;10.43;4.63;;;;;;;;;;4997502;28;20089;-77
2021/08/13 11:29:29;;;;;;;9.73;4.22;;;;;;;;;;4997587;28;20054;-77
2021/08/13 11:32:08;;;;;;;26.05;11.93;;;;;;;;;;4997659;28;20113;-77
2021/08/13 11:34:48;;;;;;;11.23;5.07;;;;;;;;;;4997451;28;20030;-77
2021/08/13 11:37:33;;;;;;;19.70;9.88;;;;;;;;;;4997328;28;20301;-77
2021/08/13 11:39:59;;;;;;;14.32;6.15;;;;;;;;;;4997930;28;20057;-77
2021/08/13 11:42:31;;;;;;;18.08;8.98;;;;;;;;;;5001383;28;20034;-77
2021/08/13 11:44:57;;;;;;;7.47;4.90;;;;;;;;;;5016310;28;20420;-77
2021/08/13 11:47:23;;;;;;;9.05;4.88;;;;;;;;;;5001100;28;20033;-77
2021/08/13 11:49:49;;;;;;;9.52;4.20;;;;;;;;;;5001202;28;20031;-78
2021/08/13 11:52:22;;;;;;;6.88;4.68;;;;;;;;;;5001219;28;20027;-77
2021/08/13 11:54:49;;;;;;;7.10;4.88;;;;;;;;;;5001132;28;20077;-77
2021/08/13 11:57:19;;;;;;;8.95;5.30;;;;;;;;;;5001115;28;20019;-77
2021/08/13 11:59:46;;;;;;;10.70;4.70;;;;;;;;;;5001191;28;20424;-77
2021/08/13 12:02:12;;;;;;;7.18;4.05;;;;;;;;;;5001042;28;20023;-77
2021/08/13 12:04:38;;;;;;;6.85;4.15;;;;;;;;;;5000941;28;20026;-77
2021/08/13 12:07:05;;;;;;;6.72;4.28;;;;;;;;;;5001002;28;20504;-77
2021/08/13 12:09:44;;;;;;;5.03;3.65;;;;;;;;;;5016189;28;20053;-78
2021/08/13 12:12:11;;;;;;;8.73;4.15;;;;;;;;;;5000977;28;20050;-77
2021/08/13 12:14:38;;;;;;;6.22;3.90;;;;;;;;;;5000863;28;20616;-77
2021/08/13 12:17:04;;;;;;;7.22;4.10;;;;;;;;;;5000647;28;20072;-77
2021/08/13 12:19:33;;;;;;;9.13;5.25;;;;;;;;;;5000688;28;20411;-76
2021/08/13 12:22:00;;;;;;;10.23;4.80;;;;;;;;;;5000604;28;20030;-76
2021/08/13 12:24:30;;;;;;;5.47;4.35;;;;;;;;;;5000748;28;20030;-76
2021/08/13 12:27:01;;;;;;;8.93;5.10;;;;;;;;;;5000675;28;20101;-76
2021/08/13 12:29:28;;;;;;;8.13;4.60;;;;;;;;;;5000536;28;20413;-76
2021/08/13 12:31:54;;;;;;;6.88;4.22;;;;;;;;;;5000497;28;20038;-76
2021/08/13 12:34:21;;;;;;;8.55;4.47;;;;;;;;;;5015851;28;20110;-76
2021/08/13 12:36:48;;;;;;;6.90;4.40;;;;;;;;;;5000603;28;20109;-76
2021/08/13 12:39:21;;;;;;;6.15;3.75;;;;;;;;;;5015449;28;20328;-76
2021/08/13 12:41:47;;;;;;;7.40;4.50;;;;;;;;;;5000411;28;20138;-75
2021/08/13 12:44:13;;;;;;;6.95;4.20;;;;;;;;;;5003523;28;20030;-76
2021/08/13 12:46:39;;;;;;;5.78;3.90;;;;;;;;;;5019791;28;20026;-76
2021/08/13 12:49:06;;;;;;;6.15;4.20;;;;;;;;;;5019938;28;20029;-76
2021/08/13 12:51:32;;;;;;;9.57;4.28;;;;;;;;;;5018800;28;20030;-76
2021/08/13 12:53:58;;;;;;;7.25;4.50;;;;;;;;;;5019269;28;20056;-76
2021/08/13 12:56:25;;;;;;;6.03;4.20;;;;;;;;;;5019582;28;20068;-76
2021/08/13 12:58:51;;;;;;;5.88;3.80;;;;;;;;;;5019611;28;20018;-76
2021/08/13 13:01:26;;;;;;;5.03;4.05;;;;;;;;;;5019601;28;20041;-76
2021/08/13 13:04:12;;;;;;;6.63;4.20;;;;;;;;;;5019315;28;20022;-76
2021/08/13 13:06:39;;;;;;;6.35;4.25;;;;;;;;;;5019453;28;20033;-76
2021/08/13 13:09:05;;;;;;;6.80;4.28;;;;;;;;;;5019344;28;20320;-76
2021/08/13 13:11:33;;;;;;;8.43;4.38;;;;;;;;;;5019394;28;20029;-76
2021/08/13 13:14:02;;;;;;;7.28;4.00;;;;;;;;;;5019225;28;20033;-76
2021/08/13 13:16:28;;;;;;;5.75;4.25;;;;;;;;;;5034746;28;20438;-76
2021/08/13 13:19:13;;;;;;;6.45;3.90;;;;;;;;;;5034646;28;20030;-76
2021/08/13 13:21:39;;;;;;;5.75;3.95;;;;;;;;;;5019251;28;20405;-76
2021/08/13 13:24:05;;;;;;;5.75;3.58;;;;;;;;;;5018916;28;20324;-76
2021/08/13 13:26:31;;;;;;;5.22;4.00;;;;;;;;;;5018964;28;20022;-76
2021/08/13 13:29:08;;;;;;;6.00;3.83;;;;;;;;;;5019325;28;20104;-76
2021/08/13 13:31:41;;;;;;;4.40;4.00;;;;;;;;;;5019143;28;20037;-76
2021/08/13 13:34:07;;;;;;;6.25;4.05;;;;;;;;;;5019147;28;20028;-76
2021/08/13 13:36:34;;;;;;;7.28;4.00;;;;;;;;;;5018940;28;20301;-75
2021/08/13 13:39:00;;;;;;;6.63;3.83;;;;;;;;;;5018520;28;20033;-76
2021/08/13 13:41:26;;;;;;;7.75;4.45;;;;;;;;;;5018758;28;20025;-76
2021/08/13 13:43:52;;;;;;;6.25;4.18;;;;;;;;;;5019176;28;20033;-76
2021/08/13 13:46:19;;;;;;;5.65;4.07;;;;;;;;;;5018850;28;20435;-80
2021/08/13 13:48:46;;;;;;;7.75;4.15;;;;;;;;;;5018624;28;20427;-76
2021/08/13 13:51:13;;;;;;;6.32;4.28;;;;;;;;;;5018383;28;20496;-76
2021/08/13 13:53:42;;;;;;;6.93;4.28;;;;;;;;;;5018796;28;20324;-76
2021/08/13 13:56:08;;;;;;;9.38;4.97;;;;;;;;;;5018456;28;20030;-76
2021/08/13 13:58:36;;;;;;;6.53;3.95;;;;;;;;;;5018472;28;20072;-76
2021/08/13 14:01:02;;;;;;;8.32;4.40;;;;;;;;;;5018535;28;20022;-76
2021/08/13 14:03:28;;;;;;;8.65;4.53;;;;;;;;;;5018268;28;20025;-76
2021/08/13 14:05:55;;;;;;;5.72;4.55;;;;;;;;;;5018411;28;20071;-76
2021/08/13 14:08:22;;;;;;;7.20;4.22;;;;;;;;;;5018398;28;20096;-76
2021/08/13 14:10:48;;;;;;;5.88;4.32;;;;;;;;;;5018667;28;20061;-76
2021/08/13 14:13:17;;;;;;;6.63;4.25;;;;;;;;;;5033638;28;20034;-76
2021/08/13 14:15:43;;;;;;;6.82;4.68;;;;;;;;;;5018437;28;20029;-76
2021/08/13 14:18:09;;;;;;;7.10;4.65;;;;;;;;;;5018189;28;20080;-76
2021/08/13 14:20:35;;;;;;;7.35;4.30;;;;;;;;;;5018061;28;20049;-76
2021/08/13 14:23:01;;;;;;;8.35;4.22;;;;;;;;;;5018149;28;20463;-76
2021/08/13 14:25:28;;;;;;;5.88;3.58;;;;;;;;;;5018072;28;20026;-76
2021/08/13 14:27:54;;;;;;;10.48;5.10;;;;;;;;;;5018214;28;20084;-76
2021/08/13 14:30:21;;;;;;;6.28;3.70;;;;;;;;;;5017990;28;20469;-76
2021/08/13 14:32:47;;;;;;;11.10;4.13;;;;;;;;;;5017688;28;20030;-76
2021/08/13 14:35:13;;;;;;;7.38;4.78;;;;;;;;;;5017770;28;20030;-76
2021/08/13 14:37:39;;;;;;;6.72;3.72;;;;;;;;;;5017800;28;20432;-76
2021/08/13 14:40:10;;;;;;;5.32;4.18;;;;;;;;;;5017650;28;20054;-76